Tropical Cyclones
[Index]
Main Index Home Page Stock Weather Photos Extreme Storms Discussion Storm News and Storm Chasing Reports Tropical Cyclones / Hurricanes / Typhoons Weather Data and Links Wild Fires / Bushfires Weather Observation Techniques Weather Picture Catalogue Tornado Pictures and Reports Stock Video Footage and DVDs for sale
Season 1998-1999 Tropical Cyclone VANCE Track Map
Season 1998-1999 Summaries (Operational Data): [AU] [SIO] [SPAC] [SH]
<<- Previous TC | 1998-1999 Season | Next TC ->>

click for intensity scale information  Lat/long Grid: Show Hide

 Date Labels: Show Hide

Operational Tropical Cyclone Data : JTWC Advisories

Name: VANCE
Number: 9930

16 Mar 1999 00:00 UTC to 24 Mar 1999 05:00 UTC

    date/time    lat    long     hPa   cat  kts
1999-03-16 00   11.0   133.0    1003                     
1999-03-16 02   11.7   132.5    1003         25          
1999-03-16 20   12.5   131.0    1002         25          
1999-03-17 08   12.2   129.5    1001         30          
1999-03-17 14   12.4   129.3    1002         30          
1999-03-17 20   12.5   128.0    1000    1    35          
1999-03-18 06   12.6   125.8     990    1    40          
1999-03-18 12   12.4   124.4     984    2    50          
1999-03-18 16   12.5   123.5     980    2    50          
1999-03-18 22   13.2   122.4     975    2    55          
1999-03-19 04   13.6   121.1     975    2    60          
1999-03-19 10   14.0   120.0     965    3    70          
1999-03-19 16   14.4   119.0     960    3    75          
1999-03-19 22   15.3   118.2     950    3    85          
1999-03-20 04   15.8   117.3     945    4    90          
1999-03-20 10   16.3   116.9     940    4    90          
1999-03-20 16   16.9   116.5     920    4   105          
1999-03-20 22   17.7   115.9     915    5   110          
1999-03-21 04   18.2   115.3     915    5   110          
1999-03-21 10   18.9   114.9     915    5   110          
1999-03-21 16   19.7   114.5     915    5   110          
1999-03-21 22   20.8   114.5     915    5   110          
1999-03-22 04   22.7   114.3     930    4    95          
1999-03-22 10   24.0   114.6     955    3    75          
1999-03-22 16   25.5   115.5     965    3    70          
1999-03-22 22   27.0   117.0     970    2    60          
1999-03-23 07   30.3   122.2     985    1    35          
1999-03-24 05   36.0   136.0            2    55          
Winds are 10-min average.

Tropical cyclone tracks developed by Michael Bath using operational warnings and advisories and Google Maps.


[Australian Severe Weather index] [Copyright Notice] [Email Contacts] [Search This Site] [Privacy Policy]
Document: tropical_cyclone_vance.htm Updated: 28 May 2013